KTRI/TRI METAR and TAF weather

Enter ICAO airport designator
Station Type Date Time Source
KTRI METAR 2021/09/16 21:53 UTC NOAA

KTRI 162153Z VRB04KT 10SM SCT042 SCT070 BKN110 28/18 A3008 RMK AO2 RAE2057 SLP161 P0000 T02780183


Station Type Date Time Source
KTRI Decoded METAR 2021/09/16 21:53 UTC NOAA

TRI-CITY REGIONAL AIRPORT, TN, United States (KTRI) 36-28N 082-24W 474M
Sep 16, 2021 - 05:53 PM EDT / 2021.09.16 2153 UTC
Wind: Variable at 5 MPH (4 KT):0
Visibility: 10 mile(s):0
Sky conditions: mostly cloudy
Precipitation last hour: A trace
Temperature: 82.0 F (27.8 C)
Dew Point: 64.9 F (18.3 C)
Relative Humidity: 56%
Pressure (altimeter): 30.08 in. Hg (1018 hPa)
ob: KTRI 162153Z VRB04KT 10SM SCT042 SCT070 BKN110 28/18 A3008 RMK AO2 RAE2057 SLP161 P0000 T02780183
cycle: 22

Station Type Date Time Source
KTRI TAF 2021/09/16 18:36 UTC NOAA

TAF KTRI 161733Z 1618/1718 VRB04KT P6SM BKN060 BKN080
FM162000 14005KT P6SM SCT050
FM171200 VRB03KT 5SM BR FEW050

Example: see airport list